Friday, May 25, 2018, 8:28 PM EDT
Back to Local

KAQW, N Adams Harriman-and-west

Location: North Adams, MA, United States Lat: 42.7
Local Time: 8:28 PM EDT ( 0:28 GMT) Lon: -73.167
Time Zone: US/Eastern Elev: 652 ft

Show me the last for .
Show Decoded

2018-05-25 19:52 METAR KAQW 252352Z AUTO 00000KT 10SM OVC110 23/13 A2979 RMK AO2 SLP087 T02330128
                 10289 20233 55000 =
2018-05-25 18:52 METAR KAQW 252252Z AUTO 27006KT 10SM BKN100 26/09 A2978 RMK AO2 SLP084 T02560094
                 =
2018-05-25 17:52 METAR KAQW 252152Z AUTO 27011G19KT 10SM CLR 28/09 A2978 RMK AO2 SLP082 T02780094
                 =
2018-05-25 16:52 METAR KAQW 252052Z AUTO 29011G21KT 10SM CLR 28/09 A2979 RMK AO2 SLP088 T02830089
                 56020 =
2018-05-25 15:52 METAR KAQW 251952Z AUTO 27013G22KT 10SM CLR 28/08 A2981 RMK AO2 PK WND
                 27026/1908 SLP094 T02830083 =
2018-05-25 14:52 METAR KAQW 251852Z AUTO 26017G23KT 10SM CLR 28/08 A2983 RMK AO2 SLP101 T02830083
                 =
2018-05-25 13:52 METAR KAQW 251752Z AUTO 27016G23KT 10SM CLR 28/09 A2985 RMK AO2 SLP108 T02780089
                 10278 20133 58025 =
2018-05-25 12:52 METAR KAQW 251652Z AUTO 27013G17KT 10SM CLR 27/09 A2988 RMK AO2 PK WND
                 27027/1624 SLP118 T02670094 =
2018-05-25 11:52 METAR KAQW 251552Z AUTO 28010G22KT 10SM CLR 26/10 A2991 RMK AO2 SLP126 T02610100
                 =
2018-05-25 10:52 METAR KAQW 251452Z AUTO 28008G17KT 260V330 10SM CLR 25/09 A2993 RMK AO2 SLP134
                 T02500089 58022 =
2018-05-25 09:52 METAR KAQW 251352Z AUTO 27008KT 10SM CLR 24/09 A2995 RMK AO2 SLP141 T02390094 =
2018-05-25 08:52 METAR KAQW 251252Z AUTO VRB03KT 10SM CLR 22/11 A2998 RMK AO2 SLP149 T02170111 =
2018-05-25 07:52 METAR KAQW 251152Z AUTO 28003KT 10SM CLR 13/10 A2999 RMK AO2 SLP157 T01330100
                 10133 20067 58005 =
2018-05-25 06:52 METAR KAQW 251052Z AUTO 00000KT 10SM CLR 09/08 A3000 RMK AO2 SLP160 T00940078 =
2018-05-25 05:52 METAR KAQW 250952Z AUTO 00000KT 10SM CLR 07/06 A3001 RMK AO2 SLP162 T00720061 =
2018-05-25 04:52 METAR KAQW 250852Z AUTO 00000KT 10SM CLR 07/06 A3001 RMK AO2 SLP162 T00720061
                 56008 =
2018-05-25 03:52 METAR KAQW 250752Z AUTO 00000KT 10SM CLR 08/07 A3001 RMK AO2 SLP163 T00830072 =
2018-05-25 02:52 METAR KAQW 250652Z AUTO 00000KT 10SM CLR 08/07 A3002 RMK AO2 SLP166 T00830072 =
2018-05-25 01:52 METAR KAQW 250552Z AUTO 00000KT 10SM CLR 09/07 A3003 RMK AO2 SLP170 T00940072
                 10194 20094 58009 =
2018-05-25 00:52 METAR KAQW 250452Z AUTO 00000KT 10SM CLR 11/07 A3005 RMK AO2 SLP174 T01060072
                 402500061 =
2018-05-24 23:52 METAR KAQW 250352Z AUTO 00000KT 10SM CLR 11/08 A3006 RMK AO2 SLP179 T01060078 =
2018-05-24 22:52 METAR KAQW 250252Z AUTO 10003KT 10SM CLR 12/08 A3006 RMK AO2 SLP180 T01220078
                 50006 =
2018-05-24 21:52 METAR KAQW 250152Z AUTO 00000KT 10SM CLR 14/08 A3007 RMK AO2 SLP181 T01440078 =
2018-05-24 20:52 METAR KAQW 250052Z AUTO 09003KT 10SM CLR 17/08 A3005 RMK AO2 SLP177 T01670083 =

Support USWX by starting your Amazon purchase here.